Time;durP1;ratioP1;P1;durP2;ratioP2;P2;SDS_P1;SDS_P2;PMS_P1;PMS_P2;Temp;Humidity;BMP_temperature;BMP_pressure;BME280_temperature;BME280_humidity;BME280_pressure;Samples;Min_cycle;Max_cycle;Signal;HPM_P1;HPM_P2
2021/09/22 00:00:25;;;;;;;6.90;3.50;;;9.10;99.90;;;7.48;95.24;102616.63;2567938;30;137782;-40
2021/09/22 00:02:55;;;;;;;6.57;3.20;;;9.10;99.90;;;7.45;95.35;102616.94;2566973;30;139315;-40
2021/09/22 00:05:23;;;;;;;4.57;2.90;;;9.00;99.90;;;7.42;95.27;102604.50;2567258;30;137851;-40
2021/09/22 00:07:51;;;;;;;5.28;3.15;;;9.00;99.90;;;7.41;95.42;102612.78;2566899;30;138512;-39
2021/09/22 00:10:20;;;;;;;5.13;3.17;;;9.00;99.90;;;7.39;95.49;102612.94;2569311;30;137764;-39
2021/09/22 00:12:49;;;;;;;5.40;3.00;;;9.00;99.90;;;7.38;95.31;102613.06;2568725;30;137458;-40
2021/09/22 00:15:20;;;;;;;6.38;3.28;;;9.00;99.90;;;7.34;95.21;102617.97;2568092;30;138178;-39
2021/09/22 00:17:48;;;;;;;5.85;3.50;;;8.90;99.90;;;7.32;95.21;102618.09;2569216;30;139291;-39
2021/09/22 00:20:25;;;;;;;5.85;3.17;;;8.90;99.90;;;7.32;95.24;102623.53;2567771;30;138426;-40
2021/09/22 00:23:03;;;;;;;5.43;3.40;;;8.90;99.90;;;7.31;95.43;102627.25;2568272;30;138444;-39
2021/09/22 00:25:34;;;;;;;5.55;3.35;;;8.90;99.90;;;7.29;95.46;102626.53;2566835;30;138354;-39
2021/09/22 00:28:04;;;;;;;6.95;2.80;;;8.90;99.90;;;7.27;95.50;102619.53;2567755;30;139022;-39
2021/09/22 00:30:33;;;;;;;6.22;3.30;;;8.80;99.90;;;7.23;95.37;102618.97;2567257;30;137275;-39
2021/09/22 00:33:05;;;;;;;5.72;3.50;;;8.80;99.90;;;7.16;95.10;102606.97;2567829;30;138153;-39
2021/09/22 00:35:35;;;;;;;4.97;3.00;;;8.80;99.90;;;7.19;95.30;102612.13;2568325;30;136736;-39
2021/09/22 00:38:04;;;;;;;7.60;3.58;;;8.80;99.90;;;7.16;95.24;102616.00;2567600;30;139163;-40
2021/09/22 00:40:31;;;;;;;4.95;2.92;;;8.80;99.90;;;7.16;95.38;102615.13;2568636;30;137114;-40
2021/09/22 00:43:01;;;;;;;5.30;2.88;;;8.80;99.90;;;7.15;95.64;102619.69;2567637;30;138223;-39
2021/09/22 00:45:30;;;;;;;7.22;3.30;;;8.70;99.90;;;7.13;95.85;102616.28;2567563;30;137636;-39
2021/09/22 00:47:58;;;;;;;5.25;3.00;;;8.70;99.90;;;7.13;95.93;102620.84;2565884;30;138597;-39
2021/09/22 00:50:52;;;;;;;5.82;3.13;;;8.70;99.90;;;7.10;96.25;102616.56;2568530;30;137359;-39
2021/09/22 00:53:20;;;;;;;5.78;3.33;;;8.70;99.90;;;7.10;96.23;102613.88;2567904;30;139372;-39
2021/09/22 00:55:51;;;;;;;7.38;3.00;;;8.70;99.90;;;7.08;96.35;102613.16;2567652;30;139515;-39
2021/09/22 00:58:26;;;;;;;4.63;2.75;;;8.70;99.90;;;7.05;96.23;102614.28;2567730;30;139030;-39
2021/09/22 01:00:54;;;;;;;6.57;2.97;;;8.70;99.90;;;7.03;95.95;102615.44;2567930;30;136705;-39
2021/09/22 01:03:22;;;;;;;;;;;8.60;99.90;;;7.01;96.05;102607.44;2568200;30;138369;-39
2021/09/22 01:05:53;;;;;;;4.93;2.78;;;8.60;99.90;;;7.00;95.95;102616.59;2567137;30;139252;-40
2021/09/22 01:08:22;;;;;;;5.20;2.70;;;8.60;99.90;;;6.99;95.98;102620.31;2566790;30;138384;-39
2021/09/22 01:10:50;;;;;;;5.65;2.65;;;8.60;99.90;;;6.97;95.89;102606.03;2567795;30;136597;-39
2021/09/22 01:13:18;;;;;;;5.53;2.72;;;8.60;99.90;;;6.97;95.96;102610.59;2567174;30;137148;-39
2021/09/22 01:15:48;;;;;;;4.32;2.63;;;8.60;99.90;;;6.94;96.05;102611.75;2567685;30;137593;-40
2021/09/22 01:18:22;;;;;;;5.43;2.95;;;8.60;99.90;;;6.89;95.76;102612.16;2569006;30;138189;-40
2021/09/22 01:20:56;;;;;;;6.47;3.03;;;8.50;99.90;;;6.83;95.76;102604.59;2570893;30;136858;-41
2021/09/22 01:23:28;;;;;;;4.90;2.83;;;8.50;99.90;;;6.81;95.67;102606.63;2568347;30;138570;-41
2021/09/22 01:26:01;;;;;;;5.75;2.70;;;8.50;99.90;;;6.79;95.86;102611.34;2567934;30;137430;-40
2021/09/22 01:28:30;;;;;;;4.95;2.92;;;8.40;99.90;;;6.75;95.90;102610.75;2568538;30;139329;-41
2021/09/22 01:31:03;;;;;;;4.78;3.05;;;8.40;99.90;;;6.75;95.85;102612.59;2568768;30;139073;-41
2021/09/22 01:33:36;;;;;;;5.15;2.97;;;8.40;99.90;;;6.72;95.81;102613.75;2567439;30;137052;-41
2021/09/22 01:36:27;;;;;;;4.18;2.50;;;8.30;99.90;;;6.63;95.69;102603.78;2568405;30;137996;-41
2021/09/22 01:38:59;;;;;;;5.05;2.60;;;8.30;99.90;;;6.63;95.77;102603.78;2565861;30;140251;-41
2021/09/22 01:41:27;;;;;;;5.28;2.70;;;8.30;99.90;;;6.62;95.77;102607.44;2569206;30;138291;-41
2021/09/22 01:43:59;;;;;;;5.20;3.00;;;8.30;99.90;;;6.59;96.07;102610.44;2568564;30;138512;-41
2021/09/22 01:46:49;;;;;;;6.97;3.63;;;8.20;99.90;;;6.55;96.11;102607.19;2569881;30;137215;-41
2021/09/22 01:49:24;;;;;;;4.32;2.58;;;8.20;99.90;;;6.54;96.15;102600.06;2569405;30;139435;-38
2021/09/22 01:52:03;;;;;;;5.78;2.90;;;8.20;99.90;;;6.52;95.82;102595.75;2569637;30;138963;-41
2021/09/22 01:54:41;;;;;;;5.35;2.42;;;8.20;99.90;;;6.49;95.90;102596.88;2566051;30;140340;-40
2021/09/22 01:57:10;;;;;;;6.85;2.80;;;8.10;99.90;;;6.44;96.15;102591.91;2569453;30;137411;-41
2021/09/22 01:59:37;;;;;;;4.47;2.72;;;8.10;99.90;;;6.42;96.50;102593.03;2568020;30;138817;-40
2021/09/22 02:02:25;;;;;;;4.30;2.78;;;8.10;99.90;;;6.42;95.99;102593.03;2566434;30;138875;-41
2021/09/22 02:05:25;;;;;;;4.15;2.60;;;8.10;99.90;;;6.37;96.22;102590.78;2567456;30;137063;-41
2021/09/22 02:08:12;;;;;;;5.25;2.70;;;8.00;99.90;;;6.34;96.10;102588.31;2569098;30;137583;-41
2021/09/22 02:10:41;;;;;;;4.85;2.83;;;8.00;99.90;;;6.33;96.42;102581.19;2565992;30;140614;-41
2021/09/22 02:13:10;;;;;;;5.15;3.00;;;8.00;99.90;;;6.33;96.50;102586.59;2565968;30;137252;-41
2021/09/22 02:15:39;;;;;;;5.38;3.00;;;8.00;99.90;;;6.32;96.46;102574.91;2568955;30;139981;-41
2021/09/22 02:18:25;;;;;;;5.22;3.00;;;8.00;99.90;;;6.30;96.23;102573.31;2571115;30;136895;-41
2021/09/22 02:20:55;;;;;;;5.70;2.85;;;8.00;99.90;;;6.26;96.58;102564.66;2568132;30;137097;-41
2021/09/22 02:23:26;;;;;;;4.88;2.72;;;7.90;99.90;;;6.25;96.35;102562.06;2567007;30;139948;-41
2021/09/22 02:25:59;;;;;;;4.60;2.90;;;7.90;99.90;;;6.22;96.44;102565.06;2569073;30;139071;-41
2021/09/22 02:28:28;;;;;;;5.53;2.80;;;7.90;99.90;;;6.21;96.42;102555.22;2569685;30;138380;-41
2021/09/22 02:30:55;;;;;;;5.13;3.33;;;7.90;99.90;;;6.19;96.34;102563.47;2568955;30;139835;-41
2021/09/22 02:33:26;;;;;;;4.80;2.50;;;7.80;99.90;;;6.17;96.32;102555.50;2568551;30;138208;-41
2021/09/22 02:35:55;;;;;;;7.30;3.40;;;7.80;99.90;;;6.16;96.31;102555.63;2566707;30;138973;-41
2021/09/22 02:38:26;;;;;;;6.53;3.00;;;7.80;99.90;;;6.12;96.14;102563.19;2567768;30;137669;-41
2021/09/22 02:40:54;;;;;;;4.72;3.03;;;7.80;99.90;;;6.09;96.43;102568.03;2569261;30;141144;-40
2021/09/22 02:43:24;;;;;;;7.35;2.88;;;7.70;99.90;;;6.07;96.53;102559.19;2571127;30;138000;-41
2021/09/22 02:45:53;;;;;;;5.07;3.08;;;7.70;99.90;;;6.05;96.69;102570.16;2567381;30;140577;-41
2021/09/22 02:48:40;;;;;;;5.65;2.97;;;7.70;99.90;;;6.03;96.51;102566.72;2568156;30;137638;-41
2021/09/22 02:51:08;;;;;;;5.95;3.00;;;7.70;99.90;;;6.00;96.47;102570.56;2568166;30;139166;-40
2021/09/22 02:53:35;;;;;;;6.05;3.38;;;7.70;99.90;;;5.99;96.45;102573.41;2569445;30;139135;-41
2021/09/22 02:56:04;;;;;;;5.47;3.08;;;7.60;99.90;;;5.87;96.32;102557.28;2569134;30;139296;-41
2021/09/22 02:58:32;;;;;;;5.68;3.38;;;7.60;99.90;;;5.96;96.58;102573.69;2565927;30;136811;-41
2021/09/22 03:01:00;;;;;;;6.07;3.53;;;7.60;99.90;;;5.89;96.57;102563.41;2572350;30;139921;-41
2021/09/22 03:03:28;;;;;;;5.28;3.15;;;7.60;99.90;;;5.95;96.81;102566.53;2570240;30;140270;-41
2021/09/22 03:05:55;;;;;;;4.78;2.88;;;7.60;99.90;;;5.93;96.77;102568.53;2569360;30;138424;-41
2021/09/22 03:08:24;;;;;;;4.93;3.00;;;7.60;99.90;;;5.92;96.68;102572.25;2566441;30;138810;-41
2021/09/22 03:10:51;;;;;;;;;;;7.60;99.90;;;5.90;96.54;102567.81;2567449;30;140575;-41
2021/09/22 03:13:19;;;;;;;6.30;3.17;;;7.60;99.90;;;5.92;96.52;102564.13;2569205;30;137187;-41
2021/09/22 03:15:47;;;;;;;5.72;2.95;;;7.60;99.90;;;5.90;97.03;102565.13;2569389;30;139394;-41
2021/09/22 03:18:15;;;;;;;5.55;3.33;;;7.60;99.90;;;5.87;96.90;102565.41;2568373;30;138897;-41
2021/09/22 03:20:43;;;;;;;5.63;3.22;;;7.50;99.90;;;5.84;96.62;102560.25;2568582;30;139793;-40
2021/09/22 03:23:11;;;;;;;5.97;3.20;;;7.50;99.90;;;5.84;96.73;102571.09;2567142;30;137933;-41
2021/09/22 03:25:41;;;;;;;5.95;3.30;;;7.50;99.90;;;5.83;97.09;102557.69;2569362;30;137301;-41
2021/09/22 03:28:08;;;;;;;6.28;3.13;;;7.50;99.90;;;5.78;96.92;102558.06;2569351;30;137597;-41
2021/09/22 03:30:39;;;;;;;7.88;3.47;;;7.50;99.90;;;5.81;96.83;102565.09;2565439;30;139814;-41
2021/09/22 03:33:12;;;;;;;6.00;3.22;;;7.50;99.90;;;5.79;97.34;102561.66;2568921;30;138960;-41
2021/09/22 03:35:41;;;;;;;5.97;3.20;;;7.40;99.90;;;5.78;97.20;102568.91;2569583;30;139316;-41
2021/09/22 03:38:09;;;;;;;6.68;3.35;;;7.40;99.90;;;5.76;97.30;102557.38;2569342;30;136589;-40
2021/09/22 03:40:37;;;;;;;;;;;7.40;99.90;;;5.73;97.20;102560.34;2569789;30;138464;-41
2021/09/22 03:43:05;;;;;;;5.07;3.20;;;7.40;99.90;;;5.73;97.34;102554.94;2569212;30;138467;-40
2021/09/22 03:45:35;;;;;;;7.03;3.17;;;7.40;99.90;;;5.72;97.38;102558.63;2568969;30;139059;-40
2021/09/22 03:48:04;;;;;;;5.28;3.30;;;7.40;99.90;;;5.72;97.40;102551.38;2570954;30;139786;-41
2021/09/22 03:50:32;;;;;;;8.60;3.25;;;7.40;99.90;;;5.71;97.76;102555.09;2568118;30;139858;-41
2021/09/22 03:53:22;;;;;;;5.53;3.10;;;7.40;99.90;;;5.73;97.52;102549.53;2568351;30;139427;-40
2021/09/22 03:55:51;;;;;;;5.93;3.17;;;7.40;99.90;;;5.73;97.63;102553.09;2568486;30;140447;-40
2021/09/22 03:58:20;;;;;;;5.10;2.95;;;7.40;99.90;;;5.70;97.77;102552.50;2569167;30;138754;-41
2021/09/22 04:00:48;;;;;;;4.88;2.75;;;7.40;99.90;;;5.72;97.93;102548.69;2568407;30;140589;-41
2021/09/22 04:03:16;;;;;;;7.18;3.35;;;7.40;99.90;;;5.71;97.95;102551.50;2565915;30;138552;-40
2021/09/22 04:05:44;;;;;;;6.20;2.80;;;7.40;99.90;;;5.72;97.99;102550.50;2569797;30;140144;-41
2021/09/22 04:08:12;;;;;;;5.07;3.20;;;7.40;99.90;;;5.72;98.40;102545.97;2569098;30;137413;-40
2021/09/22 04:10:46;;;;;;;8.50;3.13;;;7.40;99.90;;;5.72;98.52;102556.81;2567771;30;139296;-41
2021/09/22 04:13:14;;;;;;;5.05;3.05;;;7.40;99.90;;;5.72;98.40;102564.06;2569326;30;139454;-41
2021/09/22 04:15:47;;;;;;;5.28;3.30;;;7.40;99.90;;;5.72;98.32;102561.34;2567355;30;140061;-41
2021/09/22 04:18:16;;;;;;;5.40;3.00;;;7.40;99.90;;;5.70;98.23;102553.38;2568230;30;139217;-41
2021/09/22 04:20:44;;;;;;;6.32;3.65;;;7.40;99.90;;;5.68;98.04;102560.75;2568165;30;138240;-40
2021/09/22 04:23:12;;;;;;;5.97;3.50;;;7.30;99.90;;;5.66;97.73;102567.31;2568484;30;137434;-41
2021/09/22 04:25:40;;;;;;;6.18;3.13;;;7.40;99.90;;;5.63;97.97;102562.19;2569371;30;139423;-40
2021/09/22 04:28:08;;;;;;;;;;;7.30;99.90;;;5.66;97.73;102578.16;2568423;30;136811;-40
2021/09/22 04:30:54;;;;;;;5.57;3.45;;;7.30;99.90;;;5.63;97.65;102567.59;2568289;30;137501;-41
2021/09/22 04:33:40;;;;;;;5.22;3.53;;;7.30;99.90;;;5.63;97.48;102573.00;2567315;30;137246;-41
2021/09/22 04:36:28;;;;;;;5.78;3.28;;;7.30;99.90;;;5.63;97.76;102578.44;2569982;30;136808;-41
2021/09/22 04:39:16;;;;;;;5.82;3.10;;;7.30;99.90;;;5.62;97.73;102572.13;2567688;30;137309;-40
2021/09/22 04:42:03;;;;;;;5.78;3.30;;;7.30;99.90;;;5.59;97.83;102581.41;2569059;30;136875;-41
2021/09/22 04:44:49;;;;;;;6.72;3.67;;;7.20;99.90;;;5.60;97.69;102579.53;2567985;30;136741;-41
2021/09/22 04:47:57;;;;;;;4.78;2.85;;;7.20;99.90;;;5.58;97.89;102582.41;2568018;30;137494;-40
2021/09/22 04:50:56;;;;;;;5.55;3.55;;;7.20;99.90;;;5.57;98.13;102583.41;2569785;30;137070;-40
2021/09/22 04:53:43;;;;;;;6.03;3.63;;;7.20;99.90;;;5.58;98.26;102576.13;2569936;30;136856;-40
2021/09/22 04:56:29;;;;;;;5.22;3.10;;;7.20;99.90;;;5.54;98.19;102577.41;2569634;30;136856;-40
2021/09/22 04:59:15;;;;;;;5.38;2.95;;;7.20;99.90;;;5.55;98.23;102587.22;2566051;30;137211;-40
2021/09/22 05:02:02;;;;;;;5.88;3.13;;;7.20;99.90;;;5.54;98.19;102577.41;2568910;30;136686;-40
2021/09/22 05:04:48;;;;;;;6.38;3.13;;;7.20;99.90;;;5.46;98.38;102569.94;2568993;30;136794;-41
2021/09/22 05:07:34;;;;;;;5.65;3.22;;;7.20;99.90;;;5.50;98.15;102582.22;2568490;30;136756;-40
2021/09/22 05:10:20;;;;;;;6.47;3.33;;;7.20;99.90;;;5.50;98.25;102579.50;2569015;30;136959;-40
2021/09/22 05:13:07;;;;;;;6.38;3.40;;;7.20;99.90;;;5.50;98.42;102587.63;2569047;30;136869;-40
2021/09/22 05:15:53;;;;;;;7.53;3.55;;;7.10;99.90;;;5.51;98.15;102589.34;2567427;30;137343;-40
2021/09/22 05:18:39;;;;;;;8.90;3.75;;;7.20;99.90;;;5.51;98.39;102586.63;2569101;30;136810;-41
2021/09/22 05:21:26;;;;;;;6.32;3.22;;;7.20;99.90;;;5.51;98.25;102592.03;2569606;30;137190;-40
2021/09/22 05:24:12;;;;;;;7.82;4.00;;;7.20;99.90;;;5.50;98.37;102601.16;2568470;30;137054;-41
2021/09/22 05:26:58;;;;;;;6.40;3.78;;;7.20;99.90;;;5.52;98.28;102601.88;2569160;30;137367;-40
2021/09/22 05:29:44;;;;;;;5.95;3.47;;;7.20;99.90;;;5.58;98.37;102608.63;2567569;30;137145;-41
2021/09/22 05:32:30;;;;;;;8.45;3.60;;;7.20;99.90;;;5.56;98.49;102607.91;2568156;30;136875;-40
2021/09/22 05:35:18;;;;;;;6.82;3.70;;;7.20;99.90;;;5.55;98.42;102596.19;2568342;30;136999;-41
2021/09/22 05:38:05;;;;;;;8.30;3.47;;;7.20;99.90;;;5.57;98.31;102596.94;2569577;30;136838;-40
2021/09/22 05:40:52;;;;;;;7.72;3.78;;;7.20;99.90;;;5.60;98.23;102595.78;2569241;30;136877;-40
2021/09/22 05:43:38;;;;;;;8.52;4.05;;;7.20;99.90;;;5.63;98.31;102602.81;2570240;30;137480;-40
2021/09/22 05:46:24;;;;;;;7.38;4.03;;;7.20;99.90;;;5.67;98.59;102606.94;2568574;30;137411;-40
2021/09/22 05:49:10;;;;;;;6.70;4.22;;;7.30;99.90;;;5.73;98.58;102609.97;2569245;30;136912;-40
2021/09/22 05:51:56;;;;;;;7.75;4.15;;;7.30;99.90;;;5.80;98.68;102610.25;2569454;30;136888;-40
2021/09/22 05:54:59;;;;;;;7.07;4.40;;;7.40;99.90;;;5.89;98.92;102603.16;2567266;30;137627;-40
2021/09/22 05:57:45;;;;;;;6.63;4.25;;;7.50;99.90;;;5.99;99.21;102603.19;2569119;30;136872;-41
2021/09/22 06:00:32;;;;;;;10.52;5.03;;;7.50;99.90;;;6.08;99.41;102613.22;2570668;30;136993;-40
2021/09/22 06:03:20;;;;;;;8.63;4.63;;;7.60;99.90;;;6.17;99.61;102614.25;2571077;30;136691;-41
2021/09/22 06:06:06;;;;;;;10.38;4.80;;;7.70;99.90;;;6.25;99.66;102618.97;2570221;30;136756;-40
2021/09/22 06:08:52;;;;;;;8.77;4.95;;;7.80;99.90;;;6.35;99.70;102617.13;2567905;30;136834;-41
2021/09/22 06:11:28;;;;;;;10.48;5.72;;;7.90;99.90;;;6.43;99.84;102608.31;2568387;30;137447;-41
2021/09/22 06:14:05;;;;;;;10.18;6.15;;;7.90;99.90;;;6.52;100.00;102610.19;2569335;30;139817;-41
2021/09/22 06:16:32;;;;;;;10.70;6.05;;;8.00;99.90;;;6.57;100.00;102604.31;2568302;30;138139;-40
2021/09/22 06:19:17;;;;;;;10.27;5.38;;;8.10;99.90;;;6.73;100.00;102626.31;2568387;30;138732;-41
2021/09/22 06:21:45;;;;;;;9.35;5.70;;;8.20;99.90;;;6.81;100.00;102625.59;2569121;30;137822;-41
2021/09/22 06:24:30;;;;;;;9.15;5.78;;;8.30;99.90;;;6.91;100.00;102629.16;2565049;30;139267;-40
2021/09/22 06:27:11;;;;;;;10.10;5.85;;;8.40;99.90;;;7.01;100.00;102625.56;2567842;30;140948;-40
2021/09/22 06:29:40;;;;;;;11.40;6.43;;;8.40;99.90;;;7.10;100.00;102629.28;2568452;30;138551;-40
2021/09/22 06:32:08;;;;;;;11.93;7.15;;;8.50;99.90;;;7.16;100.00;102628.69;2569868;30;138134;-41
2021/09/22 06:34:54;;;;;;;11.38;7.10;;;8.60;99.90;;;7.25;100.00;102629.69;2569466;30;136960;-40
2021/09/22 06:37:33;;;;;;;11.95;7.15;;;8.70;99.90;;;7.36;100.00;102625.94;2567074;30;139204;-41
2021/09/22 06:40:10;;;;;;;11.60;7.78;;;8.80;99.90;;;7.46;100.00;102626.78;2567274;30;137391;-41
2021/09/22 06:42:38;;;;;;;14.48;8.50;;;8.90;99.90;;;7.55;100.00;102625.00;2568258;30;137444;-41
2021/09/22 06:45:06;;;;;;;14.07;8.60;;;8.90;99.90;;;7.66;100.00;102621.25;2568409;30;136996;-41
2021/09/22 06:47:34;;;;;;;14.73;8.82;;;9.10;99.90;;;7.77;100.00;102621.94;2568480;30;137285;-41
2021/09/22 06:50:03;;;;;;;17.42;9.55;;;9.20;99.90;;;7.89;100.00;102617.16;2569578;30;138716;-41
2021/09/22 06:52:31;;;;;;;16.05;9.07;;;9.30;99.90;;;8.03;100.00;102623.09;2568683;30;138273;-41
2021/09/22 06:54:59;;;;;;;;;;;9.40;99.90;;;8.14;100.00;102633.75;2569402;30;137451;-41
2021/09/22 06:57:29;;;;;;;17.75;9.75;;;9.50;99.90;;;8.28;100.00;102628.84;2568180;30;137939;-41
2021/09/22 06:59:57;;;;;;;20.65;12.10;;;9.60;99.90;;;8.39;100.00;102630.47;2566398;30;137523;-41
2021/09/22 07:02:25;;;;;;;20.38;11.80;;;9.70;99.90;;;8.56;100.00;102631.53;2570407;30;137962;-41
2021/09/22 07:04:53;;;;;;;21.45;11.23;;;9.80;99.90;;;8.72;100.00;102631.66;2570714;30;138456;-41
2021/09/22 07:07:21;;;;;;;22.02;12.57;;;10.00;99.90;;;8.91;100.00;102632.53;2568384;30;137432;-41
2021/09/22 07:09:48;;;;;;;26.73;12.98;;;10.20;99.90;;;9.08;100.00;102628.06;2570155;30;137190;-41
2021/09/22 07:12:16;;;;;;;23.08;12.20;;;10.30;99.90;;;9.27;100.00;102635.16;2568852;30;139222;-41
2021/09/22 07:14:44;;;;;;;24.73;13.63;;;10.40;99.90;;;9.48;100.00;102626.66;2567354;30;137111;-41
2021/09/22 07:17:11;;;;;;;24.58;13.25;;;10.60;99.90;;;9.63;100.00;102639.66;2569794;30;137679;-41
2021/09/22 07:19:39;;;;;;;27.63;13.55;;;10.80;99.90;;;9.78;100.00;102632.59;2574090;30;137543;-39
2021/09/22 07:22:06;;;;;;;25.80;14.43;;;10.90;99.90;;;9.99;100.00;102635.91;2568560;30;137603;-40
2021/09/22 07:24:34;;;;;;;24.13;13.02;;;11.10;99.90;;;10.16;99.90;102631.38;2568080;30;138668;-39
2021/09/22 07:27:02;;;;;;;21.38;13.23;;;11.20;99.90;;;10.27;98.50;102638.41;2567823;30;138216;-39
2021/09/22 07:29:29;;;;;;;23.85;12.60;;;11.40;99.90;;;10.41;98.41;102642.38;2566880;30;137761;-39
2021/09/22 07:31:57;;;;;;;22.25;13.45;;;11.50;99.90;;;10.54;97.72;102640.03;2568497;30;138261;-40
2021/09/22 07:34:26;;;;;;;25.73;12.88;;;11.60;99.90;;;10.70;96.83;102644.66;2566524;30;137419;-39
2021/09/22 07:37:10;;;;;;;21.50;12.70;;;11.80;99.90;;;10.82;94.94;102652.50;2565963;30;138925;-40
2021/09/22 07:39:40;;;;;;;19.08;11.07;;;11.90;99.90;;;10.95;95.10;102644.69;2567415;30;137571;-39
2021/09/22 07:42:12;;;;;;;19.70;11.32;;;12.00;99.90;;;11.10;94.89;102646.72;2567424;30;137114;-40
2021/09/22 07:44:46;;;;;;;20.95;12.20;;;12.10;99.90;;;11.24;92.82;102646.03;2568406;30;138291;-39
2021/09/22 07:47:15;;;;;;;21.50;12.52;;;12.30;99.90;;;11.39;92.59;102645.31;2568522;30;138362;-40
2021/09/22 07:49:44;;;;;;;19.40;11.68;;;12.40;99.90;;;11.49;89.74;102644.09;2568707;30;136946;-40
2021/09/22 07:52:14;;;;;;;17.95;11.82;;;12.50;99.90;;;11.65;89.31;102632.25;2565362;30;138664;-39
2021/09/22 07:54:42;;;;;;;22.35;12.57;;;12.70;99.90;;;11.90;90.25;102643.13;2568166;30;137657;-40
2021/09/22 07:57:10;;;;;;;19.13;11.40;;;12.80;99.90;;;12.07;88.56;102641.22;2567654;30;138428;-39
2021/09/22 07:59:38;;;;;;;;;;;13.00;99.90;;;12.22;87.60;102648.66;2568118;30;137648;-40
2021/09/22 08:02:06;;;;;;;19.55;11.35;;;13.20;99.90;;;12.39;87.84;102641.22;2569188;30;138305;-40
2021/09/22 08:04:34;;;;;;;19.65;10.68;;;13.30;99.90;;;12.49;86.85;102650.06;2566921;30;136791;-40
2021/09/22 08:07:02;;;;;;;22.42;12.38;;;13.40;99.90;;;12.58;84.08;102647.25;2568083;30;137630;-40
2021/09/22 08:09:31;;;;;;;23.55;11.55;;;13.50;99.90;;;12.71;85.78;102647.50;2567899;30;136909;-40
2021/09/22 08:11:59;;;;;;;17.63;10.63;;;13.70;99.90;;;12.83;85.99;102647.09;2565841;30;138445;-40
2021/09/22 08:14:35;;;;;;;18.02;10.70;;;13.70;99.90;;;12.88;83.29;102647.38;2566999;30;137615;-40
2021/09/22 08:17:04;;;;;;;40.63;15.35;;;13.90;99.90;;;12.90;83.45;102657.13;2567298;30;138302;-40
2021/09/22 08:19:35;;;;;;;64.15;20.80;;;13.90;99.90;;;13.05;83.62;102646.22;2565934;30;137474;-40
2021/09/22 08:22:04;;;;;;;27.63;13.65;;;14.00;99.90;;;13.14;82.21;102646.13;2567994;30;138251;-40
2021/09/22 08:24:33;;;;;;;50.50;16.33;;;14.10;99.90;;;13.31;83.17;102647.69;2567146;30;137332;-40
2021/09/22 08:27:01;;;;;;;38.05;16.10;;;14.20;99.90;;;13.36;80.30;102644.38;2568341;30;138231;-41
2021/09/22 08:29:28;;;;;;;41.20;15.18;;;14.40;99.90;;;13.49;80.85;102649.25;2566808;30;138622;-40
2021/09/22 08:31:56;;;;;;;23.27;11.80;;;14.50;99.90;;;13.64;81.28;102639.16;2568793;30;137222;-40
2021/09/22 08:34:24;;;;;;;23.20;12.50;;;14.60;99.90;;;13.68;80.13;102630.53;2567900;30;137516;-41
2021/09/22 08:36:52;;;;;;;24.40;12.05;;;14.60;99.90;;;13.79;78.13;102630.03;2568918;30;138447;-40
2021/09/22 08:39:20;;;;;;;;;;;14.70;99.90;;;13.88;78.07;102631.66;2569057;30;136840;-40
2021/09/22 08:41:48;;;;;;;24.52;11.88;;;14.80;99.90;;;13.94;78.91;102635.53;2568494;30;137340;-39
2021/09/22 08:44:17;;;;;;;20.92;11.80;;;14.80;99.90;;;13.98;77.86;102633.25;2566624;30;137867;-41
2021/09/22 08:46:46;;;;;;;22.45;11.65;;;14.90;99.90;;;14.04;77.83;102627.00;2568449;30;138157;-40
2021/09/22 08:49:15;;;;;;;23.40;11.55;;;15.00;99.90;;;14.14;76.43;102632.19;2568652;30;137081;-40
2021/09/22 08:51:44;;;;;;;18.40;10.20;;;15.00;99.90;;;14.23;74.09;102623.66;2567216;30;137289;-40
2021/09/22 08:54:13;;;;;;;18.83;11.18;;;15.10;99.90;;;14.23;73.71;102629.13;2567399;30;137054;-40
2021/09/22 08:56:44;;;;;;;23.95;11.48;;;15.10;99.90;;;14.41;75.55;102625.13;2567911;30;137756;-40
2021/09/22 08:59:15;;;;;;;19.05;11.07;;;15.30;99.90;;;14.60;76.96;102629.13;2567723;30;137615;-40
2021/09/22 09:02:17;;;;;;;20.85;11.18;;;15.40;99.90;;;14.74;72.70;102619.16;2568028;30;137997;-40
2021/09/22 09:05:03;;;;;;;21.63;10.43;;;15.60;99.90;;;14.89;72.25;102621.81;2568202;30;137710;-40
2021/09/22 09:07:33;;;;;;;19.00;12.13;;;15.70;99.90;;;15.00;69.45;102616.84;2568618;30;137308;-40
2021/09/22 09:10:08;;;;;;;17.65;11.10;;;;;;;15.10;70.19;102618.16;2568346;30;137685;-42
2021/09/22 09:12:35;;;;;;;17.88;11.27;;;16.00;99.90;;;15.11;69.89;102616.28;2568234;30;136778;-40
2021/09/22 09:15:14;;;;;;;17.17;10.90;;;16.00;99.90;;;15.15;70.90;102614.00;2566493;30;137654;-40
2021/09/22 09:17:46;;;;;;;19.42;11.63;;;16.10;99.90;;;15.24;71.21;102605.38;2569831;30;138422;-40
2021/09/22 09:20:23;;;;;;;18.95;10.85;;;16.10;99.90;;;15.31;70.58;102612.84;2564831;30;136994;-40
2021/09/22 09:23:04;;;;;;;17.38;10.52;;;16.20;99.90;;;15.41;70.71;102613.31;2567553;30;137814;-40
2021/09/22 09:25:56;;;;;;;17.42;11.27;;;16.30;99.90;;;15.42;70.15;102606.78;2568313;30;136798;-41
2021/09/22 09:28:32;;;;;;;18.88;10.80;;;16.30;99.90;;;15.47;70.40;102606.19;2568737;30;137292;-40
2021/09/22 09:31:12;;;;;;;20.35;10.75;;;16.40;99.90;;;15.43;68.80;102604.88;2566491;30;137716;-40
2021/09/22 09:33:44;;;;;;;19.02;10.75;;;16.40;99.90;;;15.51;69.50;102607.47;2565459;30;138748;-40
2021/09/22 09:36:35;;;;;;;20.30;10.45;;;16.50;99.90;;;15.63;69.32;102603.09;2567686;30;137381;-42
2021/09/22 09:39:20;;;;;;;17.02;9.95;;;16.50;99.90;;;15.86;68.63;102603.84;2566616;30;136908;-40
2021/09/22 09:41:51;;;;;;;19.77;10.63;;;16.70;99.90;;;16.05;69.11;102605.00;2567163;30;137072;-40
2021/09/22 09:44:24;;;;;;;16.95;9.45;;;16.80;99.90;;;16.18;67.61;102601.44;2568214;30;138099;-40
2021/09/22 09:46:54;;;;;;;20.35;10.75;;;16.90;99.90;;;16.23;66.64;102596.16;2566933;30;137010;-40
2021/09/22 09:49:28;;;;;;;19.05;10.23;;;17.00;99.90;;;16.29;67.49;102589.00;2565129;30;137839;-40
2021/09/22 09:51:59;;;;;;;17.52;10.50;;;17.10;99.90;;;16.37;64.53;102592.41;2566446;30;137638;-40
2021/09/22 09:54:38;;;;;;;16.50;10.07;;;17.20;99.90;;;16.38;64.47;102591.34;2566908;30;139120;-40
2021/09/22 09:57:17;;;;;;;;;;;17.30;99.90;;;16.46;63.82;102592.19;2566577;30;137457;-40
2021/09/22 09:59:53;;;;;;;24.23;10.77;;;17.40;99.90;;;16.60;65.60;102590.31;2567136;30;139016;-40
2021/09/22 10:02:28;;;;;;;17.20;10.35;;;17.40;99.90;;;16.77;64.67;102576.97;2567471;30;137755;-40
2021/09/22 10:04:58;;;;;;;17.23;10.43;;;17.60;99.90;;;16.91;63.00;102570.41;2566601;30;137212;-41
2021/09/22 10:07:29;;;;;;;18.92;10.80;;;17.70;99.90;;;17.04;62.25;102574.22;2564496;30;137495;-40
2021/09/22 10:09:57;;;;;;;15.00;9.30;;;17.80;99.90;;;17.02;61.71;102574.47;2567732;30;138333;-40
2021/09/22 10:12:24;;;;;;;30.15;10.57;;;17.90;99.90;;;17.04;60.08;102576.97;2567940;30;137619;-40
2021/09/22 10:14:53;;;;;;;14.48;9.38;;;17.90;99.90;;;17.13;61.78;102572.09;2567221;30;137828;-40
2021/09/22 10:17:25;;;;;;;20.98;9.68;;;18.00;99.90;;;17.07;60.79;102577.41;2567884;30;138452;-40
2021/09/22 10:19:55;;;;;;;16.02;9.35;;;18.00;99.90;;;17.13;61.00;102570.22;2566576;30;139237;-40
2021/09/22 10:22:22;;;;;;;16.48;9.82;;;18.00;99.90;;;17.15;60.82;102557.06;2567723;30;139662;-40
2021/09/22 10:24:51;;;;;;;19.48;10.43;;;18.00;99.90;;;17.21;60.32;102577.38;2567247;30;138621;-41
2021/09/22 10:27:20;;;;;;;19.10;10.48;;;18.10;99.90;;;17.15;59.75;102567.22;2567388;30;140214;-41
2021/09/22 10:30:00;;;;;;;20.45;12.00;;;18.00;99.90;;;17.16;58.98;102567.00;2568072;30;137751;-40
2021/09/22 10:32:43;;;;;;;20.55;11.38;;;18.10;99.90;;;17.22;61.07;102566.16;2567676;30;137048;-40
2021/09/22 10:35:26;;;;;;;22.65;12.23;;;18.10;99.90;;;17.28;63.61;102561.69;2568089;30;137793;-41
2021/09/22 10:37:59;;;;;;;23.40;12.43;;;18.20;99.90;;;17.39;63.16;102563.78;2565884;30;137305;-40